Airfield :
LOGIN :

Register | Disclaimer

   EN    FR    IT 

 










Legend :    VFR   Marginal VFR   IFR   Intensive IFR   Very Intensive IFR
Visi :
Ceiling :
>= 8 km
>= 3000ft
5 to 8 km
1000 to 3000 ft
1500m to 5 km
500 to 1000 ft
800 to 1500m
200 to 500 ft
< 800m
< 200 ft
Symbols :   Thunderstorms  Fog  Heavy snow  Heavy precipitations  Wind > 20 kt
SIGMETs :     Misc.  Thunderstorms  Icing  Turbulence  Mountain Waves  Volcanic Ashes







- Airport Elevation : 614 ft
- IATA code : CRL


EBCI - Charleroi

CURRENT METAR :
  • 240120Z 20013KT 7000 SCT006 BKN009 11/10 Q1019 TEMPO 3000 DZRA BR BKN004

EXPIRED METARs :
  • 240050Z 21013KT 7000 SCT006 BKN009 11/10 Q1020 TEMPO 3000 DZRA BR BKN004
  • 240020Z 22014KT 7000 SCT006 BKN009 11/10 Q1020 TEMPO 3000 DZRA BR BKN004
  • 232350Z 21012KT 7000 SCT006 BKN009 10/10 Q1020 TEMPO 3000 DZRA BR BKN004
  • 232320Z 21014KT 7000 SCT006 BKN009 10/10 Q1020 TEMPO 2000 RADZ BR BKN004

TAF TAF EBCI
Valid from the 24 at 00:00 until the 25 at 06:00 UTC


232301Z 2400/2506 21012KT 9999 SCT004 BKN007
TEMPO 2400/2411 3000 DZ BKN004
BECMG 2410/2412 21015G27KT
BECMG 2411/2413 BKN017 BKN040
TEMPO 2412/2420 21023G40KT
BECMG 2421/2423 23013KT
TEMPO 2422/2502 4000 SHRA BKN008 BKN014
PROB40 2502/2506 BKN004
No reported NOTAMs for that airfield.



MET'MAP, your aeronautical weather chart ! - Copyright ORBIFLY December 2007 - Disclaimer

ORBIFLY MET'MAP TEAM :

Programming & Development : Alexandra Zaïnal
Concept & Development : Baudouin d'Aumeries
Co-Development & Prog : Marc-Olivier Méhu
Technical & hardware support : Manuel Goepfert

Contact : metmap@orbifly.com




SOURCES & CREDITS :

   NOAA